Magic Valley Regional Airport

Airport
ICAO code: 
KTWF
Summary
ICAO Region: 
NAM
Territory: 
Location: 
Twin Falls, Idaho,
Coordinates: 
Aerial View: 
42° 28' 54.001" N, 114° 29' 15" W
Airport CFIT: 
Altimeter Temperature Error Correction
Airport RE: 
Hot and High Operations
Metar
Observation
KTWF 040553Z AUTO VRB05KT 10SM CLR 03/M02 A3016 RMK AO2 SLP195 T00331017 10072 20006 55002 $
Station
Twin Falls, Joslin Field-Magic Valley Regional Airport
Date/Time
2021-12-04 05:53:00
Wind speed
05 kts
Lowest cloud amount
n/a
Temperature
3.3°C
Dew point
-1.7°C
Humidity
69%
Weather condition
n/a

Description

Magic Valley Regional Airport, also known as Joslin Field, is a public airport located 6 km south of Twin Falls, in Twin Falls County, Idaho.

Climatology

Cold Semi-arid climate (Köppen climate classification BSk). - Hot, sometimes extremely hot summers and cold, sometimes very cold winters. Some snowfall during the winter. Areas featuring cold semi-arid climates are sometimes subject to major temperature swings during a 24 hour period.

Runways

Designator Length Width Surface Rops
12/30 983 23 ASP Yes/Yes
7/25 2653 46 ASP Yes/Yes
Airport map: 
Aerial View: 

SKYbrary Partners:

Safety knowledge contributed by: